Time;durP1;ratioP1;P1;durP2;ratioP2;P2;SDS_P1;SDS_P2;PMS_P1;PMS_P2;Temp;Humidity;BMP_temperature;BMP_pressure;BME280_temperature;BME280_humidity;BME280_pressure;Samples;Min_cycle;Max_cycle;Signal;HPM_P1;HPM_P2
2022/05/19 00:02:09;;;;;;;2.58;1.83;;;22.60;60.80;;;;;;5128809;27;20362;-72
2022/05/19 00:04:38;;;;;;;4.80;2.38;;;22.60;60.70;;;;;;5128041;28;20090;-73
2022/05/19 00:07:05;;;;;;;2.70;1.90;;;22.60;61.00;;;;;;5128287;28;20071;-72
2022/05/19 00:09:30;;;;;;;3.25;1.88;;;22.60;61.40;;;;;;5128423;28;20126;-72
2022/05/19 00:11:59;;;;;;;3.00;1.92;;;22.60;60.70;;;;;;5127757;28;20130;-73
2022/05/19 00:14:25;;;;;;;3.25;2.30;;;22.60;60.80;;;;;;5127203;28;20213;-72
2022/05/19 00:16:56;;;;;;;3.25;1.90;;;22.60;60.80;;;;;;5128770;27;20041;-72
2022/05/19 00:19:22;;;;;;;2.50;2.13;;;22.60;60.80;;;;;;5129101;28;20027;-71
2022/05/19 00:21:47;;;;;;;3.30;2.50;;;22.60;60.80;;;;;;5128779;27;20036;-73
2022/05/19 00:24:13;;;;;;;2.60;2.33;;;22.60;60.70;;;;;;5128537;28;20131;-73
2022/05/19 00:26:39;;;;;;;4.68;2.25;;;22.60;60.80;;;;;;5128952;28;20042;-72
2022/05/19 00:29:07;;;;;;;3.40;2.10;;;22.60;60.80;;;;;;5129154;28;20478;-73
2022/05/19 00:31:33;;;;;;;3.58;1.90;;;22.50;60.70;;;;;;5127202;28;20111;-72
2022/05/19 00:34:01;;;;;;;4.22;2.28;;;22.60;60.80;;;;;;5127478;28;20047;-73
2022/05/19 00:36:27;;;;;;;4.03;2.35;;;22.60;60.80;;;;;;5127556;28;20126;-72
2022/05/19 00:38:52;;;;;;;2.33;2.13;;;22.60;60.80;;;;;;5129076;27;20089;-72
2022/05/19 00:41:18;;;;;;;7.03;3.15;;;22.50;60.80;;;;;;5127575;28;20471;-72
2022/05/19 00:43:54;;;;;;;4.18;2.55;;;22.50;60.80;;;;;;5126631;28;20035;-73
2022/05/19 00:46:24;;;;;;;4.93;3.25;;;22.50;61.60;;;;;;5127089;28;20106;-73
2022/05/19 00:48:58;;;;;;;4.70;2.97;;;22.50;60.80;;;;;;5128926;27;20046;-73
2022/05/19 00:51:36;;;;;;;4.60;2.50;;;22.50;60.90;;;;;;5127548;28;20043;-73
2022/05/19 00:54:07;;;;;;;3.88;2.72;;;22.40;60.90;;;;;;5127472;28;20039;-72
2022/05/19 00:56:38;;;;;;;3.33;3.03;;;22.50;60.90;;;;;;5128197;27;20047;-72
2022/05/19 00:59:09;;;;;;;3.35;2.65;;;22.40;60.80;;;;;;5126948;28;20120;-71
2022/05/19 01:01:38;;;;;;;3.08;2.50;;;22.40;60.80;;;;;;5126729;28;20051;-72
2022/05/19 01:04:15;;;;;;;3.30;2.40;;;22.40;60.90;;;;;;5126751;28;20046;-73
2022/05/19 01:06:45;;;;;;;3.95;2.33;;;22.40;60.90;;;;;;5126684;28;20035;-73
2022/05/19 01:09:14;;;;;;;3.28;2.65;;;22.40;61.70;;;;;;5128318;27;20074;-73
2022/05/19 01:11:41;;;;;;;3.13;2.30;;;22.40;60.90;;;;;;5124316;27;20039;-73
2022/05/19 01:14:07;;;;;;;3.70;2.20;;;22.40;61.00;;;;;;5114191;28;20644;-71
2022/05/19 01:16:33;;;;;;;3.08;2.38;;;22.40;61.00;;;;;;5114166;28;20046;-73
2022/05/19 01:19:00;;;;;;;2.92;2.38;;;22.40;61.00;;;;;;5114257;28;20404;-72
2022/05/19 01:21:28;;;;;;;3.80;2.55;;;22.30;60.90;;;;;;5113118;28;20040;-72
2022/05/19 01:29:35;;;;;;;3.80;2.50;;;22.30;60.90;;;;;;5109240;27;20351;-72
2022/05/19 01:32:03;;;;;;;2.70;2.50;;;22.30;60.90;;;;;;5124587;27;20429;-72
2022/05/19 01:34:32;;;;;;;4.82;2.17;;;22.30;60.90;;;;;;5107711;28;20044;-72
2022/05/19 01:36:59;;;;;;;3.45;2.80;;;22.30;60.90;;;;;;5107390;28;20043;-72
2022/05/19 01:39:29;;;;;;;2.65;2.45;;;22.30;60.90;;;;;;5107337;28;20048;-72
2022/05/19 01:45:20;;;;;;;4.53;2.45;;;22.20;60.90;;;;;;5107566;27;20403;-73
2022/05/19 01:48:14;;;;;;;4.38;2.88;;;22.30;61.00;;;;;;5107809;28;20110;-72
2022/05/19 01:53:53;;;;;;;3.38;2.90;;;22.20;61.00;;;;;;5151516;27;1165597;-73
2022/05/19 01:56:29;;;;;;;3.67;3.08;;;22.20;61.00;;;;;;5152358;27;20049;-73
2022/05/19 02:01:42;;;;;;;3.20;2.78;;;22.20;61.00;;;;;;5150247;27;20107;-73
2022/05/19 02:04:23;;;;;;;3.70;3.00;;;22.20;61.00;;;;;;5127704;28;20130;-72
2022/05/19 02:06:56;;;;;;;4.72;3.38;;;22.20;61.10;;;;;;5127997;28;20078;-72
2022/05/19 02:09:31;;;;;;;5.60;3.67;;;22.10;61.00;;;;;;5110036;28;20043;-72
2022/05/19 02:11:58;;;;;;;4.57;3.45;;;22.10;61.00;;;;;;5124433;28;20040;-72
2022/05/19 02:14:33;;;;;;;4.95;3.75;;;22.10;61.00;;;;;;5124226;28;20534;-72
2022/05/19 02:17:00;;;;;;;3.65;2.80;;;22.10;61.00;;;;;;5107168;28;20118;-72
2022/05/19 02:19:33;;;;;;;4.88;3.70;;;22.10;61.00;;;;;;5107333;28;20070;-72
2022/05/19 02:22:00;;;;;;;3.92;3.63;;;22.10;61.10;;;;;;5108794;28;20039;-72
2022/05/19 02:24:30;;;;;;;4.18;3.42;;;22.10;61.00;;;;;;5106627;28;20066;-73
2022/05/19 02:26:56;;;;;;;5.45;4.57;;;22.00;61.00;;;;;;5124149;28;20044;-72
2022/05/19 02:29:26;;;;;;;4.68;4.00;;;22.00;61.80;;;;;;5108733;28;20040;-73
2022/05/19 02:32:01;;;;;;;4.87;3.57;;;22.00;61.10;;;;;;5107454;28;20036;-73
2022/05/19 02:34:26;;;;;;;3.80;3.42;;;22.10;61.10;;;;;;5124141;28;20119;-72
2022/05/19 02:36:52;;;;;;;3.58;3.28;;;22.00;61.10;;;;;;5108246;28;20112;-72
2022/05/19 02:39:18;;;;;;;5.07;4.25;;;22.00;61.10;;;;;;5106968;28;20069;-72
2022/05/19 02:41:43;;;;;;;4.22;3.28;;;22.00;61.10;;;;;;5108277;28;20032;-72
2022/05/19 02:44:09;;;;;;;7.47;4.18;;;22.00;61.10;;;;;;5107519;28;20040;-72
2022/05/19 02:46:37;;;;;;;6.25;3.58;;;22.00;61.20;;;;;;5106407;28;20047;-72
2022/05/19 02:49:03;;;;;;;5.05;3.65;;;22.00;61.20;;;;;;5108319;28;20085;-72
2022/05/19 02:51:30;;;;;;;4.45;3.65;;;22.00;61.20;;;;;;5106873;28;20040;-73
2022/05/19 02:53:58;;;;;;;4.20;3.72;;;22.00;61.20;;;;;;5106692;28;20044;-72
2022/05/19 02:56:24;;;;;;;4.88;3.42;;;21.90;61.10;;;;;;5107804;28;20499;-72
2022/05/19 02:58:50;;;;;;;4.95;4.47;;;21.90;61.10;;;;;;5123560;28;20075;-73
2022/05/19 03:01:15;;;;;;;4.18;3.50;;;21.90;61.20;;;;;;5106052;28;20112;-72
2022/05/19 03:03:41;;;;;;;5.47;4.63;;;21.90;61.20;;;;;;5106232;28;20372;-71
2022/05/19 03:06:07;;;;;;;7.13;5.30;;;21.90;61.20;;;;;;5107675;28;20118;-72
2022/05/19 03:08:36;;;;;;;5.88;5.38;;;21.90;61.20;;;;;;5107556;28;20043;-72
2022/05/19 03:11:02;;;;;;;7.17;4.90;;;21.90;61.20;;;;;;5103459;28;20059;-72
2022/05/19 03:13:28;;;;;;;6.40;4.97;;;21.80;61.20;;;;;;5092530;28;20040;-72
2022/05/19 03:15:53;;;;;;;7.35;5.30;;;21.80;61.20;;;;;;5092831;28;20052;-72
2022/05/19 03:18:19;;;;;;;5.90;5.03;;;21.80;61.20;;;;;;5075622;28;20040;-72
2022/05/19 03:20:45;;;;;;;6.82;6.15;;;21.80;61.30;;;;;;5092326;28;20040;-72
2022/05/19 03:23:11;;;;;;;6.70;5.07;;;21.80;61.30;;;;;;5109186;28;20114;-72
2022/05/19 03:25:37;;;;;;;5.72;5.05;;;21.80;61.30;;;;;;5109146;28;20032;-68
2022/05/19 03:28:03;;;;;;;5.82;5.20;;;21.80;61.30;;;;;;5092130;28;20040;-72
2022/05/19 03:30:28;;;;;;;7.28;6.50;;;21.80;61.30;;;;;;5093889;28;20039;-72
2022/05/19 03:32:54;;;;;;;6.35;5.78;;;21.80;61.40;;;;;;5093310;28;20028;-72
2022/05/19 03:35:23;;;;;;;8.05;5.43;;;21.80;61.40;;;;;;5092654;28;20434;-72
2022/05/19 03:37:48;;;;;;;6.85;5.20;;;21.80;61.50;;;;;;5092124;28;20043;-73
2022/05/19 03:40:16;;;;;;;5.55;5.00;;;21.80;61.50;;;;;;5092079;28;20042;-72
2022/05/19 03:42:42;;;;;;;4.40;3.97;;;21.70;61.40;;;;;;5093276;28;20042;-72
2022/05/19 03:45:08;;;;;;;4.65;4.00;;;21.80;61.50;;;;;;5092914;28;20036;-72
2022/05/19 03:47:34;;;;;;;4.40;4.00;;;21.70;61.50;;;;;;5108663;28;20043;-72
2022/05/19 03:49:59;;;;;;;4.38;3.42;;;21.70;61.50;;;;;;5093592;28;20040;-72
2022/05/19 03:52:25;;;;;;;5.32;4.28;;;21.70;61.50;;;;;;5093274;28;20032;-71
2022/05/19 03:54:51;;;;;;;5.57;3.97;;;21.70;61.50;;;;;;5109230;28;20433;-72
2022/05/19 03:57:21;;;;;;;4.25;3.78;;;21.70;61.50;;;;;;5092511;28;20043;-72
2022/05/19 03:59:47;;;;;;;5.03;4.07;;;21.70;61.60;;;;;;5091483;28;20074;-67
2022/05/19 04:02:14;;;;;;;4.72;3.58;;;21.70;61.50;;;;;;5093031;28;20056;-71
2022/05/19 04:04:40;;;;;;;5.15;3.45;;;21.80;61.50;;;;;;5108426;28;20048;-72
2022/05/19 04:07:06;;;;;;;5.30;4.28;;;21.70;61.50;;;;;;5092609;28;20494;-72
2022/05/19 04:09:31;;;;;;;4.28;3.88;;;21.70;61.50;;;;;;5091767;28;20085;-72
2022/05/19 04:11:58;;;;;;;5.78;4.47;;;21.70;61.50;;;;;;5091561;28;20050;-72
2022/05/19 04:14:23;;;;;;;3.92;3.63;;;21.70;61.50;;;;;;5108137;28;20503;-72
2022/05/19 04:16:53;;;;;;;4.65;4.18;;;21.70;61.50;;;;;;5091423;28;20078;-71
2022/05/19 04:19:19;;;;;;;5.38;3.78;;;21.70;61.50;;;;;;5108495;28;20043;-72
2022/05/19 04:21:45;;;;;;;4.95;4.28;;;21.70;61.50;;;;;;5091770;28;20050;-72
2022/05/19 04:24:12;;;;;;;4.05;3.58;;;21.70;61.50;;;;;;5107315;28;20044;-72
2022/05/19 04:26:38;;;;;;;3.90;3.50;;;21.70;61.50;;;;;;5092426;28;20067;-72
2022/05/19 04:29:04;;;;;;;4.40;4.03;;;21.70;61.50;;;;;;5092570;28;20119;-73
2022/05/19 04:31:30;;;;;;;4.20;3.67;;;21.70;61.50;;;;;;5091715;28;20044;-73
2022/05/19 04:33:56;;;;;;;4.82;3.55;;;21.70;61.50;;;;;;5092366;28;20044;-72
2022/05/19 04:36:24;;;;;;;3.17;2.85;;;21.70;61.40;;;;;;5092503;28;20493;-72
2022/05/19 04:38:49;;;;;;;6.53;4.53;;;21.70;61.40;;;;;;5091045;28;20043;-72
2022/05/19 04:41:15;;;;;;;3.70;3.30;;;21.70;61.40;;;;;;5092268;28;20044;-72
2022/05/19 04:43:41;;;;;;;5.38;3.38;;;21.70;61.50;;;;;;5090668;28;20086;-72
2022/05/19 04:46:06;;;;;;;4.30;3.90;;;21.70;61.50;;;;;;5091714;28;20051;-72
2022/05/19 04:48:32;;;;;;;3.63;3.28;;;21.70;61.40;;;;;;5090811;28;20028;-72
2022/05/19 04:50:59;;;;;;;3.92;3.60;;;21.70;61.40;;;;;;5091287;28;20127;-72
2022/05/19 04:53:28;;;;;;;4.75;3.60;;;21.70;61.40;;;;;;5091796;28;20040;-70
2022/05/19 04:55:55;;;;;;;4.22;3.75;;;21.70;61.40;;;;;;5090805;28;20412;-72
2022/05/19 04:58:21;;;;;;;4.20;3.15;;;21.70;61.40;;;;;;5092356;28;20087;-72
2022/05/19 05:00:49;;;;;;;3.67;3.33;;;21.70;61.30;;;;;;5107479;28;20087;-72
2022/05/19 05:03:15;;;;;;;3.42;3.03;;;21.70;61.30;;;;;;5107763;28;20048;-72
2022/05/19 05:05:40;;;;;;;3.88;3.47;;;21.70;61.30;;;;;;5089932;28;20112;-72
2022/05/19 05:08:06;;;;;;;3.72;3.22;;;21.70;61.30;;;;;;5089974;28;20044;-72
2022/05/19 05:10:32;;;;;;;5.13;4.18;;;21.80;61.30;;;;;;5092075;28;20032;-72
2022/05/19 05:13:07;;;;;;;3.65;3.20;;;21.80;61.30;;;;;;5090612;28;20040;-72
2022/05/19 05:15:34;;;;;;;3.80;3.50;;;21.80;61.30;;;;;;5107217;28;20097;-72
2022/05/19 05:17:59;;;;;;;4.35;3.80;;;21.80;61.20;;;;;;5091739;28;20395;-72
2022/05/19 05:20:25;;;;;;;4.05;3.65;;;21.80;61.20;;;;;;5090297;28;20040;-71
2022/05/19 05:22:51;;;;;;;5.72;5.20;;;21.80;61.20;;;;;;5090268;28;20039;-72
2022/05/19 05:25:17;;;;;;;6.03;3.85;;;21.80;61.10;;;;;;5089828;28;20047;-73
2022/05/19 05:27:43;;;;;;;5.18;4.70;;;21.80;61.10;;;;;;5091224;28;20059;-72
2022/05/19 05:30:10;;;;;;;6.03;4.15;;;21.80;61.10;;;;;;5090495;28;20040;-72
2022/05/19 05:32:36;;;;;;;3.88;3.58;;;21.80;61.10;;;;;;5107040;28;20050;-71
2022/05/19 05:35:03;;;;;;;5.82;3.95;;;21.80;61.00;;;;;;5089433;28;20123;-70
2022/05/19 05:37:29;;;;;;;3.85;3.55;;;21.90;61.30;;;;;;5090339;28;20047;-75
2022/05/19 05:39:57;;;;;;;6.05;3.15;;;21.90;61.00;;;;;;5095262;28;20547;-70
2022/05/19 05:42:23;;;;;;;5.97;2.50;;;21.90;61.00;;;;;;5088254;28;20133;-73
2022/05/19 05:44:49;;;;;;;3.78;2.70;;;22.00;61.20;;;;;;5086546;28;20032;-75
2022/05/19 05:47:15;;;;;;;3.08;2.58;;;22.00;61.00;;;;;;5086205;28;20035;-73
2022/05/19 05:49:40;;;;;;;5.05;2.97;;;22.10;61.20;;;;;;5083851;28;20069;-74
2022/05/19 05:52:07;;;;;;;4.40;3.13;;;22.10;61.30;;;;;;5103678;28;20169;-75
2022/05/19 05:54:34;;;;;;;6.20;3.83;;;22.10;61.50;;;;;;5089667;28;20119;-74
2022/05/19 05:57:00;;;;;;;6.57;3.65;;;22.20;61.60;;;;;;5088018;28;20044;-74
2022/05/19 05:59:26;;;;;;;7.47;4.55;;;22.20;61.60;;;;;;5086580;28;20063;-73
2022/05/19 06:01:51;;;;;;;8.27;5.50;;;22.20;61.60;;;;;;5106868;28;20406;-75
2022/05/19 06:04:17;;;;;;;9.55;5.88;;;22.20;62.00;;;;;;5107513;28;20067;-76
2022/05/19 06:06:45;;;;;;;7.70;5.18;;;22.20;62.20;;;;;;5078483;28;20541;-69
2022/05/19 06:09:12;;;;;;;8.65;4.70;;;22.20;62.20;;;;;;5080093;28;20060;-69
2022/05/19 06:11:39;;;;;;;6.70;4.45;;;22.30;62.20;;;;;;5083655;28;20032;-70
2022/05/19 06:14:04;;;;;;;6.63;4.60;;;22.30;62.00;;;;;;5098394;28;20282;-69
2022/05/19 06:16:33;;;;;;;7.60;3.70;;;22.30;61.90;;;;;;5092087;28;20114;-68
2022/05/19 06:19:02;;;;;;;5.28;3.78;;;22.40;61.90;;;;;;5080059;28;20131;-70
2022/05/19 06:21:30;;;;;;;6.60;3.05;;;22.40;61.70;;;;;;5092118;28;20046;-72
2022/05/19 06:23:56;;;;;;;7.93;2.92;;;22.30;61.60;;;;;;5086151;28;20046;-76
2022/05/19 06:26:22;;;;;;;5.90;2.55;;;22.40;61.70;;;;;;5095421;28;20777;-78
2022/05/19 06:28:47;;;;;;;3.53;2.30;;;22.40;61.90;;;;;;5093726;28;20036;-77
2022/05/19 06:31:13;;;;;;;4.97;2.30;;;22.40;61.80;;;;;;5075968;28;20044;-72
2022/05/19 06:33:39;;;;;;;4.25;2.33;;;22.50;61.90;;;;;;5087034;28;20051;-72
2022/05/19 06:36:09;;;;;;;4.50;2.10;;;22.50;61.80;;;;;;5103830;28;20048;-71
2022/05/19 06:38:35;;;;;;;6.43;2.08;;;22.60;61.70;;;;;;5091767;28;20170;-71
2022/05/19 06:43:47;;;;;;;3.95;1.90;;;22.70;61.40;;;;;;5085451;28;20396;-69
2022/05/19 06:46:13;;;;;;;5.40;1.90;;;22.70;61.20;;;;;;5085910;28;20054;-70
2022/05/19 06:48:39;;;;;;;6.05;1.95;;;22.70;61.10;;;;;;5097690;28;20039;-70
2022/05/19 06:51:04;;;;;;;7.15;1.80;;;22.70;61.10;;;;;;5090510;28;20041;-72
2022/05/19 06:53:30;;;;;;;7.63;1.83;;;22.70;61.20;;;;;;5090206;28;20040;-73
2022/05/19 06:55:56;;;;;;;3.30;2.05;;;22.70;61.20;;;;;;5081861;28;20032;-69
2022/05/19 06:58:22;;;;;;;8.35;1.83;;;22.70;61.40;;;;;;5086788;28;20417;-71
2022/05/19 07:00:48;;;;;;;12.05;2.05;;;22.70;61.50;;;;;;5086666;28;20697;-72
2022/05/19 07:03:13;;;;;;;7.68;1.85;;;22.80;61.50;;;;;;5088130;28;20062;-74
2022/05/19 07:05:40;;;;;;;6.40;1.45;;;22.80;61.30;;;;;;5090528;28;20483;-70
2022/05/19 07:08:06;;;;;;;4.32;1.85;;;22.80;61.40;;;;;;5092217;28;20115;-70
2022/05/19 07:10:36;;;;;;;5.55;1.75;;;22.90;61.60;;;;;;5093800;28;20466;-72
2022/05/19 07:13:01;;;;;;;9.50;2.42;;;22.90;61.70;;;;;;5093874;28;20048;-75
2022/05/19 07:15:30;;;;;;;5.95;2.10;;;23.00;61.70;;;;;;5088299;28;20032;-73
2022/05/19 07:17:59;;;;;;;5.13;2.17;;;23.00;62.00;;;;;;5092382;28;20126;-72
2022/05/19 07:20:55;;;;;;;4.97;1.80;;;23.10;62.10;;;;;;5095078;28;20078;-74
2022/05/19 07:23:15;;;;;;;8.40;1.73;;;23.10;62.00;;;;;;5091116;28;20138;-72
2022/05/19 07:25:43;;;;;;;8.60;1.70;;;23.10;61.90;;;;;;5081903;28;20046;-72
2022/05/19 07:28:09;;;;;;;7.28;1.38;;;23.10;61.70;;;;;;5087117;28;20032;-72
2022/05/19 07:30:35;;;;;;;6.65;1.73;;;23.10;61.70;;;;;;5090962;28;20044;-74
2022/05/19 07:33:01;;;;;;;12.73;2.03;;;23.10;61.60;;;;;;5090827;28;20062;-73
2022/05/19 07:35:30;;;;;;;4.75;2.13;;;23.10;61.70;;;;;;5089784;28;20040;-73
2022/05/19 07:37:56;;;;;;;6.88;1.90;;;23.10;61.90;;;;;;5094064;28;20075;-74
2022/05/19 07:40:22;;;;;;;6.30;2.28;;;23.10;61.80;;;;;;5094011;28;20869;-74
2022/05/19 07:42:47;;;;;;;5.03;1.67;;;23.10;62.00;;;;;;5093978;28;20559;-75
2022/05/19 07:45:15;;;;;;;3.70;1.50;;;23.10;61.90;;;;;;5086544;28;20032;-75
2022/05/19 07:47:41;;;;;;;5.57;1.67;;;23.00;61.80;;;;;;5096530;28;20047;-74
2022/05/19 07:50:09;;;;;;;6.03;1.90;;;23.10;61.90;;;;;;5086512;28;20383;-74
2022/05/19 07:52:35;;;;;;;5.13;1.48;;;23.00;61.90;;;;;;5097583;28;20044;-72
2022/05/19 07:55:02;;;;;;;7.13;1.88;;;23.10;61.90;;;;;;5089623;28;20067;-72
2022/05/19 07:57:28;;;;;;;5.93;2.13;;;23.00;61.80;;;;;;5090710;28;20123;-72
2022/05/19 07:59:54;;;;;;;7.65;1.52;;;23.00;61.70;;;;;;5099036;28;20078;-71
2022/05/19 08:02:20;;;;;;;4.18;1.40;;;23.00;61.70;;;;;;5096170;28;20490;-73
2022/05/19 08:04:46;;;;;;;5.20;1.50;;;23.00;61.80;;;;;;5088890;28;20038;-73
2022/05/19 08:07:11;;;;;;;3.55;1.58;;;23.00;61.80;;;;;;5088898;28;20035;-72
2022/05/19 08:15:48;;;;;;;2.28;1.00;;;23.00;62.00;;;;;;5085620;28;20051;-72
2022/05/19 08:18:06;;;;;;;5.43;1.10;;;23.00;62.80;;;;;;5090205;28;20036;-72
2022/05/19 08:20:32;;;;;;;6.57;0.90;;;23.00;63.20;;;;;;5096938;28;20465;-73
2022/05/19 08:22:58;;;;;;;3.65;1.25;;;23.00;63.30;;;;;;5099204;28;20078;-72
2022/05/19 08:25:26;;;;;;;2.92;1.40;;;23.10;63.30;;;;;;5095577;28;20076;-73
2022/05/19 08:27:53;;;;;;;2.78;0.70;;;23.10;63.30;;;;;;5094537;28;20596;-73
2022/05/19 08:30:20;;;;;;;3.25;1.10;;;23.10;63.20;;;;;;5102650;28;20043;-72
2022/05/19 08:32:45;;;;;;;2.08;0.85;;;23.10;63.10;;;;;;5096917;28;20048;-75
2022/05/19 08:35:11;;;;;;;2.78;1.48;;;23.20;63.00;;;;;;5092473;28;20042;-76
2022/05/19 08:37:37;;;;;;;1.73;0.90;;;23.20;62.90;;;;;;5099838;28;20040;-77
2022/05/19 08:40:03;;;;;;;3.28;1.20;;;23.30;62.90;;;;;;5102132;28;20047;-77
2022/05/19 08:42:33;;;;;;;2.67;0.98;;;23.20;62.80;;;;;;5098064;28;20055;-77
2022/05/19 08:45:02;;;;;;;3.35;1.40;;;23.30;62.90;;;;;;5099410;28;20047;-77
2022/05/19 08:47:34;;;;;;;7.18;1.20;;;23.30;62.90;;;;;;5092777;28;20047;-76
2022/05/19 08:52:46;;;;;;;8.35;1.42;;;23.30;62.90;;;;;;5059360;27;20481;-69
2022/05/19 08:55:17;;;;;;;4.88;1.38;;;23.40;63.30;;;;;;5070748;28;20408;-69
2022/05/19 08:57:55;;;;;;;5.38;1.52;;;23.50;63.70;;;;;;5063581;28;20369;-68
2022/05/19 09:00:44;;;;;;;3.75;1.65;;;23.50;64.70;;;;;;5047597;28;20895;-70
2022/05/19 09:11:50;;;;;;;5.75;1.75;;;23.90;63.50;;;;;;5114648;27;1175102;-70
2022/05/19 09:14:24;;;;;;;6.60;1.55;;;24.00;63.20;;;;;;5136754;27;20430;-70
2022/05/19 09:16:53;;;;;;;4.18;1.73;;;24.10;63.20;;;;;;5133717;27;20157;-69
2022/05/19 09:22:11;;;;;;;10.65;1.77;;;24.10;63.00;;;;;;5103227;27;20950;-71
2022/05/19 09:24:38;;;;;;;6.50;1.90;;;24.20;62.70;;;;;;5104792;27;20043;-71
2022/05/19 09:27:05;;;;;;;6.25;1.60;;;24.30;62.70;;;;;;5123568;27;20642;-71
2022/05/19 09:29:36;;;;;;;3.95;1.55;;;24.30;62.40;;;;;;5110716;27;20114;-71
2022/05/19 09:32:26;;;;;;;8.85;1.73;;;24.40;62.00;;;;;;5105967;27;20054;-71
2022/05/19 09:35:01;;;;;;;6.82;1.83;;;24.40;61.90;;;;;;5107731;27;20925;-71
2022/05/19 09:45:41;;;;;;;5.40;1.98;;;24.40;61.40;;;;;;5099175;27;20083;-71
2022/05/19 09:48:09;;;;;;;3.20;1.40;;;24.50;60.80;;;;;;5091717;28;20067;-70
2022/05/19 09:50:42;;;;;;;6.78;1.85;;;24.50;60.70;;;;;;5099181;28;20757;-71
2022/05/19 09:53:21;;;;;;;5.18;1.75;;;24.50;60.50;;;;;;5093493;28;20036;-70
2022/05/19 09:55:58;;;;;;;5.85;1.70;;;24.50;60.30;;;;;;5105935;28;20040;-71
2022/05/19 09:58:28;;;;;;;2.33;1.20;;;24.50;60.10;;;;;;5090130;28;20052;-68
2022/05/19 10:00:57;;;;;;;;;;;24.50;60.20;;;;;;5093101;28;20055;-67
2022/05/19 10:03:44;;;;;;;5.20;1.60;;;24.50;60.60;;;;;;5093914;28;20394;-67
2022/05/19 10:06:21;;;;;;;4.78;1.38;;;24.60;60.50;;;;;;5093114;28;20521;-73
2022/05/19 10:08:48;;;;;;;3.63;1.48;;;24.60;60.80;;;;;;5086705;28;20111;-73
2022/05/19 10:14:14;;;;;;;2.85;1.05;;;24.60;60.80;;;;;;5070502;27;20445;-73
2022/05/19 10:17:21;;;;;;;6.45;1.75;;;24.70;61.00;;;;;;5062223;28;20623;-76
2022/05/19 10:23:06;;;;;;;5.20;1.50;;;24.70;61.10;;;;;;5087949;27;20457;-76
2022/05/19 10:35:11;;;;;;;4.47;1.70;;;24.70;60.80;;;;;;5126926;27;1179828;-73
2022/05/19 10:45:59;;;;;;;5.22;1.15;;;24.80;60.80;;;;;;5092947;27;20134;-73
2022/05/19 10:49:04;;;;;;;2.17;1.17;;;24.80;60.50;;;;;;5091173;28;20058;-72
2022/05/19 10:54:53;;;;;;;5.63;1.88;;;24.80;60.90;;;;;;5054647;28;20438;-74
2022/05/19 11:17:11;;;;;;;3.10;1.35;;;24.80;61.20;;;;;;5070928;27;20442;-67
2022/05/19 11:19:46;;;;;;;3.33;1.55;;;24.80;61.10;;;;;;5027423;28;20048;-72
2022/05/19 11:22:14;;;;;;;7.05;1.45;;;24.80;61.00;;;;;;5032713;28;21921;-73
2022/05/19 11:27:27;;;;;;;5.93;0.60;;;24.90;60.90;;;;;;5054437;27;20413;-72
2022/05/19 11:29:59;;;;;;;3.47;0.93;;;24.90;61.10;;;;;;5068102;28;20095;-72
2022/05/19 11:32:32;;;;;;;5.13;1.00;;;24.90;61.10;;;;;;5034876;28;20033;-74
2022/05/19 11:40:53;;;;;;;5.18;1.20;;;25.00;61.20;;;;;;5070379;27;20492;-70
2022/05/19 11:43:48;;;;;;;5.20;1.15;;;25.00;61.20;;;;;;5082806;28;20199;-73
2022/05/19 11:46:20;;;;;;;7.80;1.45;;;25.00;61.10;;;;;;5073560;28;20083;-72
2022/05/19 11:55:12;;;;;;;6.63;1.48;;;25.10;60.80;;;;;;5068720;28;20047;-73
2022/05/19 12:00:56;;;;;;;4.75;1.17;;;25.00;60.70;;;;;;4968447;27;4075549;-72
2022/05/19 12:09:22;;;;;;;2.65;1.02;;;25.10;60.50;;;;;;5129382;27;1167028;-71
2022/05/19 12:14:48;;;;;;;7.82;1.10;;;25.20;60.50;;;;;;5076220;27;1166954;-73
2022/05/19 12:20:49;;;;;;;6.70;1.40;;;25.20;60.60;;;;;;5082915;27;20444;-75
2022/05/19 12:26:10;;;;;;;3.03;1.27;;;25.20;60.60;;;;;;5110562;27;20414;-76
2022/05/19 12:32:01;;;;;;;5.50;1.77;;;25.20;60.90;;;;;;5105351;27;20471;-73
2022/05/19 12:34:36;;;;;;;2.70;0.88;;;25.20;60.60;;;;;;5068056;28;20117;-75
2022/05/19 12:39:49;;;;;;;4.90;1.20;;;25.20;60.30;;;;;;5098374;27;1156157;-71
2022/05/19 12:42:24;;;;;;;5.03;1.20;;;25.20;59.80;;;;;;5104869;27;20323;-72
2022/05/19 12:44:51;;;;;;;11.73;1.42;;;25.20;59.70;;;;;;5116800;27;20023;-72
2022/05/19 13:06:55;;;;;;;3.78;1.20;;;25.20;59.80;;;;;;5090726;27;20464;-67
2022/05/19 13:09:28;;;;;;;3.80;0.75;;;25.10;60.00;;;;;;5087370;28;20086;-68
2022/05/19 13:11:57;;;;;;;2.97;1.10;;;25.10;60.10;;;;;;5084346;28;20036;-68
2022/05/19 13:14:31;;;;;;;3.83;1.42;;;25.10;60.40;;;;;;5090615;28;20044;-69
2022/05/19 13:16:57;;;;;;;7.05;1.45;;;25.10;60.80;;;;;;5084685;28;20515;-69
2022/05/19 13:19:29;;;;;;;6.22;1.17;;;25.10;61.10;;;;;;5118609;27;20035;-69
2022/05/19 13:24:40;;;;;;;6.68;1.40;;;25.00;61.40;;;;;;5078798;27;20904;-68
2022/05/19 13:30:35;;;;;;;5.80;1.38;;;25.00;62.00;;;;;;5079605;28;20124;-68
2022/05/19 13:32:49;;;;;;;8.80;1.60;;;25.00;62.50;;;;;;5072485;28;20060;-72
2022/05/19 13:35:18;;;;;;;4.03;1.77;;;24.90;62.50;;;;;;5079178;28;20036;-71
2022/05/19 13:37:46;;;;;;;8.37;2.40;;;24.90;63.00;;;;;;5072798;28;20864;-72
2022/05/19 13:42:58;;;;;;;4.82;1.50;;;24.90;63.20;;;;;;5075983;27;20449;-72
2022/05/19 13:45:29;;;;;;;4.80;1.48;;;24.80;63.30;;;;;;5067729;28;20040;-72
2022/05/19 13:47:55;;;;;;;4.03;1.65;;;24.80;63.30;;;;;;5071785;28;20067;-73
2022/05/19 13:50:26;;;;;;;4.95;1.60;;;24.80;63.40;;;;;;5062172;28;20075;-72
2022/05/19 13:52:59;;;;;;;3.85;1.42;;;24.70;63.40;;;;;;5068669;28;20123;-71
2022/05/19 13:55:30;;;;;;;4.40;1.63;;;24.70;63.60;;;;;;5061830;28;20045;-71
2022/05/19 13:57:55;;;;;;;;;;;24.70;63.70;;;;;;5061281;28;20116;-72
2022/05/19 14:00:24;;;;;;;3.78;1.45;;;24.60;63.80;;;;;;5062895;28;20003;-72
2022/05/19 14:02:51;;;;;;;3.50;2.00;;;24.60;63.80;;;;;;5063273;28;20037;-69
2022/05/19 14:05:26;;;;;;;3.72;1.45;;;24.60;64.30;;;;;;5069150;28;20047;-69
2022/05/19 14:07:53;;;;;;;3.85;1.88;;;24.60;64.80;;;;;;5073831;28;20054;-68
2022/05/19 14:10:25;;;;;;;4.05;1.10;;;24.50;64.80;;;;;;5076657;28;20043;-73
2022/05/19 14:12:55;;;;;;;4.75;1.65;;;24.50;64.70;;;;;;5069759;28;20094;-74
2022/05/19 14:15:29;;;;;;;4.28;1.45;;;24.50;64.80;;;;;;5074891;28;20094;-74
2022/05/19 14:20:54;;;;;;;5.00;1.30;;;24.40;64.70;;;;;;5142166;27;1164094;-72
2022/05/19 14:23:27;;;;;;;8.15;1.98;;;24.40;65.00;;;;;;5139291;27;20046;-73
2022/05/19 14:25:58;;;;;;;5.40;1.48;;;24.40;65.00;;;;;;5141576;27;20038;-72
2022/05/19 14:36:41;;;;;;;3.80;1.10;;;24.30;65.20;;;;;;5104256;27;20384;-75
2022/05/19 14:44:54;;;;;;;9.30;1.83;;;24.30;65.70;;;;;;5106498;28;20051;-71
2022/05/19 14:47:25;;;;;;;3.53;1.05;;;24.30;65.70;;;;;;5104001;28;20414;-77
2022/05/19 14:49:56;;;;;;;2.83;1.15;;;24.30;65.60;;;;;;5106509;28;20027;-76
2022/05/19 14:52:40;;;;;;;4.03;1.25;;;24.20;65.40;;;;;;5107331;28;20036;-77
2022/05/19 14:55:33;;;;;;;4.97;1.70;;;24.20;65.30;;;;;;5109681;28;20032;-75
2022/05/19 14:58:01;;;;;;;2.80;0.93;;;24.20;65.10;;;;;;5106085;28;20119;-75
2022/05/19 15:00:32;;;;;;;4.20;1.02;;;24.20;64.90;;;;;;5106778;28;20487;-76
2022/05/19 15:02:58;;;;;;;4.50;1.30;;;24.20;64.80;;;;;;5105829;28;20040;-75
2022/05/19 15:05:24;;;;;;;3.17;1.25;;;24.20;64.60;;;;;;5104463;28;20043;-76
2022/05/19 15:07:55;;;;;;;2.83;0.90;;;24.30;64.60;;;;;;5113939;28;20043;-76
2022/05/19 15:10:27;;;;;;;1.17;0.90;;;24.30;64.40;;;;;;5126778;28;20071;-77
2022/05/19 15:12:54;;;;;;;1.88;0.60;;;24.30;64.30;;;;;;5125289;28;20082;-77
2022/05/19 15:15:20;;;;;;;1.75;0.93;;;24.30;64.10;;;;;;5117595;28;20043;-77
2022/05/19 15:17:46;;;;;;;2.47;1.20;;;24.30;63.90;;;;;;5108376;28;20104;-77
2022/05/19 15:20:20;;;;;;;1.25;0.80;;;24.40;63.90;;;;;;5106830;28;20499;-77
2022/05/19 15:22:48;;;;;;;2.10;0.90;;;24.40;63.80;;;;;;5107923;28;20042;-77
2022/05/19 15:25:13;;;;;;;2.70;0.70;;;24.30;63.70;;;;;;5130711;27;20043;-76
2022/05/19 15:27:43;;;;;;;2.72;0.80;;;24.40;63.70;;;;;;5117985;28;20036;-76
2022/05/19 15:30:13;;;;;;;1.63;0.90;;;24.30;64.10;;;;;;5112242;28;20043;-76
2022/05/19 15:32:38;;;;;;;;;;;24.30;63.70;;;;;;5102669;28;20089;-75
2022/05/19 15:35:05;;;;;;;2.65;0.90;;;24.40;63.70;;;;;;5085706;28;19999;-75
2022/05/19 15:37:31;;;;;;;2.25;0.95;;;24.30;63.60;;;;;;5103563;28;20125;-75
2022/05/19 15:39:56;;;;;;;2.67;1.20;;;24.40;63.70;;;;;;5102927;28;20037;-73
2022/05/19 15:42:23;;;;;;;2.30;1.13;;;24.40;63.60;;;;;;5086709;28;20069;-76
2022/05/19 15:44:49;;;;;;;1.95;0.90;;;24.40;63.60;;;;;;5087296;28;20072;-75
2022/05/19 15:47:19;;;;;;;2.30;1.02;;;24.40;63.60;;;;;;5088160;28;20036;-74
2022/05/19 15:49:47;;;;;;;5.32;1.67;;;24.40;63.60;;;;;;5103637;28;20037;-74
2022/05/19 15:52:14;;;;;;;2.13;1.05;;;24.40;63.50;;;;;;5080607;28;20131;-75
2022/05/19 15:54:40;;;;;;;2.78;0.90;;;24.30;63.60;;;;;;5074340;28;20040;-74